createdAt,value
2022-09-15T00:01:18.271Z,22.90
2022-09-15T00:03:45.967Z,22.88
2022-09-15T00:06:14.664Z,22.87
2022-09-15T00:08:42.987Z,22.69
2022-09-15T00:11:20.205Z,22.75
2022-09-15T00:13:49.322Z,22.70
2022-09-15T00:16:18.852Z,22.74
2022-09-15T00:18:48.484Z,22.71
2022-09-15T00:21:19.435Z,22.64
2022-09-15T00:23:48.409Z,22.60
2022-09-15T00:26:20.530Z,22.43
2022-09-15T00:28:48.707Z,22.53
2022-09-15T00:31:22.184Z,22.49
2022-09-15T00:33:52.357Z,22.36
2022-09-15T00:36:22.114Z,22.35
2022-09-15T00:38:50.606Z,22.37
2022-09-15T00:41:20.191Z,22.39
2022-09-15T00:44:00.108Z,22.36
2022-09-15T00:46:35.245Z,22.27
2022-09-15T00:49:02.856Z,22.27
2022-09-15T00:52:07.015Z,22.32
2022-09-15T00:54:50.181Z,22.24
2022-09-15T00:57:35.495Z,22.11
2022-09-15T01:00:08.672Z,22.07
2022-09-15T01:02:37.613Z,22.13
2022-09-15T01:05:08.863Z,22.02
2022-09-15T01:07:55.398Z,21.97
2022-09-15T01:10:28.328Z,22.03
2022-09-15T01:13:00.240Z,22.09
2022-09-15T01:15:37.872Z,22.02
2022-09-15T01:18:44.329Z,21.85
2022-09-15T01:21:22.105Z,21.88
2022-09-15T01:24:01.668Z,21.75
2022-09-15T01:27:37.695Z,21.70
2022-09-15T01:30:05.354Z,21.83
2022-09-15T01:32:58.845Z,21.74
2022-09-15T01:35:44.434Z,21.67
2022-09-15T01:38:16.512Z,21.73
2022-09-15T01:41:05.940Z,21.74
2022-09-15T01:43:39.340Z,21.84
2022-09-15T01:46:07.855Z,21.90
2022-09-15T01:48:37.224Z,21.98
2022-09-15T01:51:07.131Z,22.01
2022-09-15T01:53:35.428Z,22.02
2022-09-15T01:56:08.589Z,22.00
2022-09-15T01:58:38.129Z,21.99
2022-09-15T02:01:20.297Z,22.02
2022-09-15T02:04:12.135Z,21.93
2022-09-15T02:07:00.970Z,21.96
2022-09-15T02:09:34.680Z,21.89
2022-09-15T02:12:07.851Z,21.96
2022-09-15T02:14:44.848Z,21.96
2022-09-15T02:17:18.014Z,21.87
2022-09-15T02:19:49.991Z,21.83
2022-09-15T02:22:27.113Z,21.90
2022-09-15T02:25:02.968Z,21.63
2022-09-15T02:27:37.778Z,21.57
2022-09-15T02:30:11.743Z,21.63
2022-09-15T02:32:48.184Z,21.72
2022-09-15T02:35:17.342Z,21.77
2022-09-15T02:37:46.240Z,21.85
2022-09-15T02:40:14.006Z,21.84
2022-09-15T02:42:51.513Z,21.77
2022-09-15T02:45:20.417Z,21.65
2022-09-15T02:47:49.532Z,21.70
2022-09-15T02:50:19.028Z,21.78
2022-09-15T02:52:47.069Z,21.89
2022-09-15T02:55:15.902Z,21.89
2022-09-15T02:57:43.573Z,21.89
2022-09-15T03:00:16.030Z,21.89
2022-09-15T03:02:46.349Z,21.85
2022-09-15T03:05:15.858Z,21.85
2022-09-15T03:07:43.863Z,21.82
2022-09-15T03:10:13.093Z,21.87
2022-09-15T03:12:42.829Z,21.86
2022-09-15T03:15:12.740Z,21.82
2022-09-15T03:17:42.567Z,21.82
2022-09-15T03:20:12.453Z,21.76
2022-09-15T03:22:40.134Z,21.75
2022-09-15T03:25:08.362Z,21.73
2022-09-15T03:27:37.509Z,21.73
2022-09-15T03:30:06.669Z,21.68
2022-09-15T03:32:34.590Z,21.69
2022-09-15T03:35:02.871Z,21.66
2022-09-15T03:37:30.438Z,21.59
2022-09-15T03:39:58.177Z,21.58
2022-09-15T03:42:25.865Z,21.41
2022-09-15T03:44:53.494Z,21.45
2022-09-15T03:47:21.061Z,21.50
2022-09-15T03:49:48.990Z,21.39
2022-09-15T03:52:16.800Z,21.39
2022-09-15T03:54:44.575Z,21.32
2022-09-15T03:57:12.044Z,21.31
2022-09-15T03:59:39.603Z,21.30
2022-09-15T04:02:07.088Z,21.28
2022-09-15T04:04:35.190Z,21.28
2022-09-15T04:07:02.680Z,21.16
2022-09-15T04:09:30.875Z,21.20
2022-09-15T04:11:58.469Z,21.22
2022-09-15T04:14:26.451Z,21.28
2022-09-15T04:16:53.906Z,21.27
2022-09-15T04:19:22.229Z,21.25
2022-09-15T04:21:50.125Z,21.21
2022-09-15T04:24:18.436Z,21.21
2022-09-15T04:26:46.360Z,21.16
2022-09-15T04:29:17.504Z,21.02
2022-09-15T04:31:46.847Z,21.04
2022-09-15T04:34:14.996Z,21.12
2022-09-15T04:36:43.080Z,21.12
2022-09-15T04:39:11.452Z,21.01
2022-09-15T04:41:38.966Z,21.07
2022-09-15T04:44:06.749Z,21.11
2022-09-15T04:46:34.357Z,21.16
2022-09-15T04:49:02.316Z,21.09
2022-09-15T04:51:29.936Z,21.04
2022-09-15T04:53:58.459Z,21.10
2022-09-15T04:56:26.700Z,21.10
2022-09-15T04:59:02.472Z,21.17
2022-09-15T05:01:34.122Z,21.22
2022-09-15T05:04:04.179Z,21.25
2022-09-15T05:06:33.090Z,21.28
2022-09-15T05:09:00.874Z,21.33
2022-09-15T05:11:28.643Z,21.45
2022-09-15T05:13:56.527Z,21.56
2022-09-15T05:16:26.257Z,21.59
2022-09-15T05:18:57.119Z,21.57
2022-09-15T05:21:25.896Z,21.57
2022-09-15T05:23:54.546Z,21.62
2022-09-15T05:26:25.423Z,21.65
2022-09-15T05:28:54.100Z,21.68
2022-09-15T05:31:25.213Z,21.71
2022-09-15T05:33:53.132Z,21.77
2022-09-15T05:36:25.076Z,21.89
2022-09-15T05:38:54.255Z,21.96
2022-09-15T05:41:22.306Z,22.02
2022-09-15T05:43:50.933Z,22.06
2022-09-15T05:46:20.713Z,22.15
2022-09-15T05:48:48.609Z,22.19
2022-09-15T05:51:16.802Z,22.20
2022-09-15T05:53:44.403Z,22.15
2022-09-15T05:56:14.475Z,22.32
2022-09-15T05:58:44.343Z,22.46
2022-09-15T06:01:18.545Z,22.50
2022-09-15T06:03:47.616Z,22.49
2022-09-15T06:06:15.966Z,22.47
2022-09-15T06:08:48.272Z,22.47
2022-09-15T06:11:19.968Z,22.53
2022-09-15T06:13:48.417Z,22.59
2022-09-15T06:16:21.559Z,22.56
2022-09-15T06:18:50.606Z,22.55
2022-09-15T06:21:21.499Z,22.40
2022-09-15T06:23:57.197Z,22.41
2022-09-15T06:26:26.468Z,22.43
2022-09-15T06:28:56.925Z,22.53
2022-09-15T06:31:26.886Z,22.48
2022-09-15T06:33:57.712Z,22.44
2022-09-15T06:36:28.652Z,22.45
2022-09-15T06:38:56.947Z,22.43
2022-09-15T06:41:25.586Z,22.39
2022-09-15T06:43:53.334Z,22.51
2022-09-15T06:46:25.139Z,22.62
2022-09-15T06:48:53.747Z,22.65
2022-09-15T06:51:24.295Z,22.73
2022-09-15T06:53:53.395Z,22.66
2022-09-15T06:56:23.273Z,22.62
2022-09-15T06:58:51.451Z,22.87
2022-09-15T07:01:31.577Z,23.08
2022-09-15T07:04:01.610Z,23.05
2022-09-15T07:06:31.448Z,23.05
2022-09-15T07:08:59.420Z,23.33
2022-09-15T07:11:27.819Z,23.61
2022-09-15T07:13:55.376Z,24.10
2022-09-15T07:16:23.293Z,24.33
2022-09-15T07:18:51.525Z,24.54
2022-09-15T07:21:20.578Z,24.61
2022-09-15T07:23:48.999Z,24.70
2022-09-15T07:26:23.269Z,24.74
2022-09-15T07:28:54.560Z,24.95
2022-09-15T07:31:25.441Z,25.13
2022-09-15T07:33:53.559Z,25.01
2022-09-15T07:36:21.807Z,25.02
2022-09-15T07:38:50.690Z,25.24
2022-09-15T07:41:29.837Z,25.21
2022-09-15T07:43:59.126Z,25.46
2022-09-15T07:46:30.200Z,25.47
2022-09-15T07:48:58.001Z,25.61
2022-09-15T07:51:27.067Z,25.74
2022-09-15T07:53:55.529Z,26.10
2022-09-15T07:56:24.031Z,26.38
2022-09-15T07:58:51.802Z,26.78
2022-09-15T08:01:22.423Z,27.02
2022-09-15T08:03:52.117Z,26.81
2022-09-15T08:06:22.723Z,26.87
2022-09-15T08:08:55.098Z,27.13
2022-09-15T08:11:27.179Z,27.34
2022-09-15T08:13:54.997Z,27.39
2022-09-15T08:16:24.050Z,27.57
2022-09-15T08:18:53.734Z,27.32
2022-09-15T08:21:22.470Z,26.65
2022-09-15T08:23:52.623Z,26.93
2022-09-15T08:26:20.739Z,27.43
2022-09-15T08:28:49.380Z,27.32
2022-09-15T08:31:17.511Z,27.24
2022-09-15T08:33:53.472Z,27.17
2022-09-15T08:36:21.257Z,27.28
2022-09-15T08:38:48.864Z,27.32
2022-09-15T08:41:28.012Z,27.41
2022-09-15T08:44:16.046Z,27.89
2022-09-15T08:47:01.571Z,28.17
2022-09-15T08:49:51.708Z,28.21
2022-09-15T08:52:26.787Z,28.05
2022-09-15T08:54:58.191Z,28.36
2022-09-15T08:57:26.455Z,28.75
2022-09-15T08:59:55.651Z,28.78
2022-09-15T09:02:47.214Z,28.61
2022-09-15T09:05:34.447Z,28.59
2022-09-15T09:08:14.401Z,29.21
2022-09-15T09:11:02.381Z,29.58
2022-09-15T09:13:47.055Z,30.29
2022-09-15T09:16:27.449Z,30.34
2022-09-15T09:19:16.069Z,31.24
2022-09-15T09:21:48.254Z,31.46
2022-09-15T09:24:21.385Z,31.01
2022-09-15T09:26:54.299Z,30.48
2022-09-15T09:29:36.609Z,30.60
2022-09-15T09:32:13.278Z,30.45
2022-09-15T09:34:56.281Z,30.25
2022-09-15T09:37:24.762Z,30.20
2022-09-15T09:39:52.364Z,30.58
2022-09-15T09:42:24.685Z,30.60
2022-09-15T09:44:52.795Z,30.59
2022-09-15T09:47:20.671Z,31.18
2022-09-15T09:49:49.525Z,31.14
2022-09-15T09:52:35.617Z,32.72
2022-09-15T09:55:24.271Z,33.52
2022-09-15T09:57:52.340Z,34.07
2022-09-15T10:00:41.092Z,34.09
2022-09-15T10:03:21.277Z,34.62
2022-09-15T10:06:07.930Z,35.17
2022-09-15T10:08:36.760Z,35.16
2022-09-15T10:11:10.379Z,35.61
2022-09-15T10:13:52.614Z,36.25
2022-09-15T10:16:22.631Z,36.68
2022-09-15T10:18:54.194Z,37.34
2022-09-15T10:21:26.294Z,36.05
2022-09-15T10:23:53.828Z,36.12
2022-09-15T10:26:34.614Z,36.12
2022-09-15T10:29:14.815Z,36.86
2022-09-15T10:31:44.808Z,36.68
2022-09-15T10:34:30.989Z,37.80
2022-09-15T10:37:16.154Z,38.30
2022-09-15T10:39:52.808Z,37.15
2022-09-15T10:42:46.108Z,36.78
2022-09-15T10:45:32.580Z,36.49
2022-09-15T10:48:09.607Z,37.01
2022-09-15T10:51:31.567Z,37.95
2022-09-15T10:54:25.493Z,37.43
2022-09-15T10:57:02.160Z,38.64
2022-09-15T10:59:36.231Z,38.81
2022-09-15T11:02:38.646Z,38.76
2022-09-15T11:05:23.008Z,38.41
2022-09-15T11:08:01.118Z,38.30
2022-09-15T11:10:35.421Z,38.17
2022-09-15T11:13:27.962Z,38.68
2022-09-15T11:15:56.651Z,37.80
2022-09-15T11:18:29.438Z,37.84
2022-09-15T11:21:00.025Z,38.26
2022-09-15T11:23:34.365Z,39.20
2022-09-15T11:26:22.527Z,38.62
2022-09-15T11:28:59.893Z,37.81
2022-09-15T11:31:34.444Z,37.68
2022-09-15T11:34:15.772Z,37.19
2022-09-15T11:36:49.209Z,38.13
2022-09-15T11:39:24.241Z,39.24
2022-09-15T11:41:59.642Z,38.83
2022-09-15T11:44:37.653Z,39.33
2022-09-15T11:47:05.319Z,39.30
2022-09-15T11:49:57.127Z,39.15
2022-09-15T11:52:49.413Z,37.99
2022-09-15T11:55:23.321Z,37.76
2022-09-15T11:57:56.074Z,37.70
2022-09-15T12:00:23.548Z,37.69
2022-09-15T12:03:12.477Z,37.94
2022-09-15T12:05:47.601Z,36.37
2022-09-15T12:08:25.404Z,35.99
2022-09-15T12:10:56.666Z,34.52
2022-09-15T12:13:26.354Z,35.73
2022-09-15T12:15:55.179Z,37.14
2022-09-15T12:18:43.842Z,38.17
2022-09-15T12:21:29.210Z,38.14
2022-09-15T12:24:05.396Z,40.02
2022-09-15T12:26:33.803Z,38.93
2022-09-15T12:29:04.604Z,38.88
2022-09-15T12:31:39.780Z,38.22
2022-09-15T12:34:25.808Z,38.44
2022-09-15T12:36:56.052Z,39.49
2022-09-15T12:39:41.620Z,40.41
2022-09-15T12:42:20.509Z,41.11
2022-09-15T12:45:07.068Z,39.90
2022-09-15T12:47:42.325Z,39.37
2022-09-15T12:50:15.771Z,38.09
2022-09-15T12:52:50.124Z,38.46
2022-09-15T12:55:22.653Z,36.59
2022-09-15T12:57:53.162Z,37.56
2022-09-15T13:00:20.619Z,38.31
2022-09-15T13:02:51.530Z,39.28
2022-09-15T13:05:42.035Z,38.56
2022-09-15T13:08:12.609Z,38.80
2022-09-15T13:10:43.826Z,38.72
2022-09-15T13:13:39.547Z,39.97
2022-09-15T13:16:14.592Z,39.22
2022-09-15T13:18:44.054Z,38.08
2022-09-15T13:21:16.405Z,36.44
2022-09-15T13:23:48.359Z,35.07
2022-09-15T13:26:22.649Z,34.73
2022-09-15T13:28:55.615Z,36.00
2022-09-15T13:31:50.976Z,36.03
2022-09-15T13:38:16.613Z,36.09
2022-09-15T13:41:06.672Z,36.38
2022-09-15T13:43:49.423Z,35.86
2022-09-15T13:46:23.018Z,35.76
2022-09-15T13:48:50.755Z,35.73
2022-09-15T13:51:39.699Z,37.19
2022-09-15T13:54:19.084Z,39.82
2022-09-15T13:56:49.143Z,40.19
2022-09-15T13:59:24.171Z,39.02
2022-09-15T14:01:54.557Z,37.88
2022-09-15T14:04:25.073Z,39.85
2022-09-15T14:06:58.523Z,40.01
2022-09-15T14:09:47.544Z,40.36
2022-09-15T14:12:18.134Z,39.04
2022-09-15T14:14:54.821Z,39.07
2022-09-15T14:17:26.775Z,39.26
2022-09-15T14:19:56.764Z,38.94
2022-09-15T14:22:28.751Z,38.55
2022-09-15T14:24:57.677Z,38.52
2022-09-15T14:27:32.629Z,37.00
2022-09-15T14:30:06.647Z,37.19
2022-09-15T14:32:47.912Z,37.62
2022-09-15T14:35:19.899Z,37.85
2022-09-15T14:37:57.151Z,38.27
2022-09-15T14:40:27.302Z,36.18
2022-09-15T14:42:55.961Z,34.73
2022-09-15T14:45:56.883Z,34.51
2022-09-15T14:48:28.445Z,35.58
2022-09-15T14:51:07.255Z,34.31
2022-09-15T14:53:40.692Z,32.95
2022-09-15T14:56:22.959Z,31.89
2022-09-15T14:59:03.688Z,32.64
2022-09-15T15:01:34.644Z,36.67
2022-09-15T15:04:09.940Z,37.09
2022-09-15T15:07:05.006Z,33.78
2022-09-15T15:09:49.100Z,32.01
2022-09-15T15:12:23.706Z,31.05
2022-09-15T15:14:54.390Z,30.83
2022-09-15T15:17:38.662Z,30.76
2022-09-15T15:20:06.229Z,30.10
2022-09-15T15:22:34.273Z,29.94
2022-09-15T15:25:02.916Z,30.38
2022-09-15T15:27:33.766Z,30.47
2022-09-15T15:30:26.591Z,30.75
2022-09-15T15:32:54.883Z,30.63
2022-09-15T15:35:23.383Z,31.82
2022-09-15T15:38:05.514Z,33.53
2022-09-15T15:40:35.930Z,34.56
2022-09-15T15:43:16.346Z,34.98
2022-09-15T15:45:51.993Z,34.51
2022-09-15T15:48:20.037Z,34.61
2022-09-15T15:50:47.824Z,33.14
2022-09-15T15:53:16.648Z,32.48
2022-09-15T15:55:44.662Z,30.64
2022-09-15T15:58:13.441Z,29.74
2022-09-15T16:00:51.184Z,29.84
2022-09-15T16:03:20.312Z,29.85
2022-09-15T16:05:54.348Z,29.25
2022-09-15T16:08:31.682Z,28.98
2022-09-15T16:11:02.304Z,28.91
2022-09-15T16:13:30.524Z,28.79
2022-09-15T16:16:00.391Z,28.71
2022-09-15T16:18:29.578Z,28.53
2022-09-15T16:20:57.065Z,28.37
2022-09-15T16:23:24.707Z,28.48
2022-09-15T16:25:57.757Z,28.43
2022-09-15T16:28:25.916Z,28.26
2022-09-15T16:30:54.313Z,28.33
2022-09-15T16:33:22.540Z,28.52
2022-09-15T16:35:55.768Z,28.54
2022-09-15T16:38:25.915Z,28.50
2022-09-15T16:40:53.762Z,28.27
2022-09-15T16:43:23.158Z,28.03
2022-09-15T16:45:52.322Z,27.91
2022-09-15T16:48:20.419Z,28.05
2022-09-15T16:51:16.805Z,27.95
2022-09-15T16:53:39.542Z,27.87
2022-09-15T16:56:10.679Z,27.73
2022-09-15T16:58:38.875Z,27.48
2022-09-15T17:01:07.997Z,27.46
2022-09-15T17:03:36.099Z,27.47
2022-09-15T17:06:04.524Z,27.23
2022-09-15T17:08:33.804Z,27.18
2022-09-15T17:11:03.969Z,27.21
2022-09-15T17:13:33.603Z,27.16
2022-09-15T17:16:02.213Z,26.95
2022-09-15T17:18:29.989Z,26.98
2022-09-15T17:20:57.486Z,26.95
2022-09-15T17:23:34.794Z,27.02
2022-09-15T17:26:05.427Z,26.90
2022-09-15T17:28:36.578Z,26.73
2022-09-15T17:31:21.937Z,26.60
2022-09-15T17:33:50.606Z,26.62
2022-09-15T17:36:18.744Z,26.51
2022-09-15T17:38:48.883Z,26.43
2022-09-15T17:41:19.819Z,26.61
2022-09-15T17:43:47.698Z,26.58
2022-09-15T17:46:16.398Z,26.69
2022-09-15T17:48:44.122Z,26.75
2022-09-15T17:51:19.706Z,26.75
2022-09-15T17:53:47.867Z,26.79
2022-09-15T17:56:15.561Z,26.70
2022-09-15T17:58:44.067Z,26.74
2022-09-15T18:01:13.741Z,26.74
2022-09-15T18:03:43.307Z,26.73
2022-09-15T18:06:11.498Z,26.58
2022-09-15T18:08:39.041Z,26.53
2022-09-15T18:11:07.694Z,26.54
2022-09-15T18:13:37.972Z,26.44
2022-09-15T18:16:10.354Z,26.37
2022-09-15T18:18:39.962Z,26.38
2022-09-15T18:21:09.840Z,26.31
2022-09-15T18:23:38.167Z,26.37
2022-09-15T18:26:05.891Z,26.36
2022-09-15T18:28:33.803Z,26.35
2022-09-15T18:31:01.457Z,26.31
2022-09-15T18:33:30.276Z,26.35
2022-09-15T18:36:01.473Z,26.15
2022-09-15T18:38:29.929Z,26.04
2022-09-15T18:40:58.749Z,25.88
2022-09-15T18:43:27.933Z,25.86
2022-09-15T18:46:00.481Z,25.85
2022-09-15T18:48:29.334Z,25.88
2022-09-15T18:50:57.044Z,25.98
2022-09-15T18:53:24.755Z,26.06
2022-09-15T18:55:52.394Z,26.18
2022-09-15T18:58:22.435Z,26.14
2022-09-15T19:00:50.236Z,26.11
2022-09-15T19:03:18.442Z,26.08
2022-09-15T19:05:46.535Z,26.06
2022-09-15T19:08:15.562Z,26.02
2022-09-15T19:10:44.237Z,25.90
2022-09-15T19:13:14.151Z,25.79
2022-09-15T19:15:44.128Z,25.68
2022-09-15T19:18:12.547Z,25.69
2022-09-15T19:20:40.568Z,25.61
2022-09-15T19:23:09.416Z,25.72
2022-09-15T19:25:37.139Z,25.63
2022-09-15T19:28:05.121Z,25.63
2022-09-15T19:30:33.474Z,25.63
2022-09-15T19:33:05.595Z,25.43
2022-09-15T19:35:33.068Z,25.27
2022-09-15T19:38:00.802Z,25.19
2022-09-15T19:40:28.853Z,25.22
2022-09-15T19:42:57.362Z,25.28
2022-09-15T19:45:24.876Z,25.24
2022-09-15T19:47:52.852Z,25.26
2022-09-15T19:50:20.507Z,25.20
2022-09-15T19:52:48.041Z,25.17
2022-09-15T19:55:18.250Z,25.21
2022-09-15T19:57:46.635Z,25.16
2022-09-15T20:00:15.126Z,25.10
2022-09-15T20:02:42.752Z,25.05
2022-09-15T20:05:10.688Z,24.95
2022-09-15T20:07:38.342Z,24.90
2022-09-15T20:10:06.520Z,24.88
2022-09-15T20:12:34.438Z,24.77
2022-09-15T20:15:01.937Z,24.79
2022-09-15T20:17:29.988Z,24.73
2022-09-15T20:19:58.376Z,24.63
2022-09-15T20:22:26.743Z,24.69
2022-09-15T20:24:56.115Z,24.60
2022-09-15T20:27:24.052Z,24.62
2022-09-15T20:29:51.515Z,24.56
2022-09-15T20:32:22.763Z,24.56
2022-09-15T20:34:52.423Z,24.60
2022-09-15T20:37:22.257Z,24.62
2022-09-15T20:39:51.441Z,24.52
2022-09-15T20:42:19.216Z,24.51
2022-09-15T20:44:46.736Z,24.58
2022-09-15T20:47:15.860Z,24.57
2022-09-15T20:49:43.327Z,24.57
2022-09-15T20:52:11.447Z,24.60
2022-09-15T20:54:39.631Z,24.48
2022-09-15T20:57:07.497Z,24.37
2022-09-15T20:59:35.962Z,24.21
2022-09-15T21:02:06.053Z,24.23
2022-09-15T21:04:33.832Z,24.15
2022-09-15T21:07:01.673Z,24.14
2022-09-15T21:09:29.632Z,23.94
2022-09-15T21:11:57.630Z,23.90
2022-09-15T21:14:25.280Z,23.98
2022-09-15T21:16:53.899Z,23.82
2022-09-15T21:19:22.281Z,23.92
2022-09-15T21:21:49.988Z,23.96
2022-09-15T21:24:17.889Z,24.00
2022-09-15T21:27:04.342Z,23.82
2022-09-15T21:29:32.150Z,23.70
2022-09-15T21:32:01.131Z,23.74
2022-09-15T21:34:29.333Z,23.71
2022-09-15T21:36:57.925Z,23.64
2022-09-15T21:39:25.491Z,23.67
2022-09-15T21:41:53.207Z,23.55
2022-09-15T21:44:21.051Z,23.61
2022-09-15T21:46:48.655Z,23.68
2022-09-15T21:49:18.102Z,23.76
2022-09-15T21:51:47.138Z,23.72
2022-09-15T21:54:15.539Z,23.74
2022-09-15T21:56:43.063Z,23.69
2022-09-15T21:59:11.054Z,23.56
2022-09-15T22:01:39.903Z,23.59
2022-09-15T22:04:08.901Z,23.64
2022-09-15T22:06:40.499Z,23.69
2022-09-15T22:09:13.458Z,23.71
2022-09-15T22:11:41.910Z,23.67
2022-09-15T22:14:10.452Z,23.69
2022-09-15T22:16:40.049Z,23.53
2022-09-15T22:19:09.982Z,23.49
2022-09-15T22:21:41.753Z,23.56
2022-09-15T22:24:13.111Z,23.54
2022-09-15T22:26:42.529Z,23.34
2022-09-15T22:29:10.609Z,23.40
2022-09-15T22:31:38.691Z,23.40
2022-09-15T22:34:06.279Z,23.44
2022-09-15T22:36:34.542Z,23.34
2022-09-15T22:39:04.509Z,23.24
2022-09-15T22:41:35.120Z,23.31
2022-09-15T22:44:03.748Z,23.33
2022-09-15T22:46:31.810Z,23.32
2022-09-15T22:49:00.053Z,23.41
2022-09-15T22:51:27.710Z,23.36
2022-09-15T22:53:57.368Z,23.39
2022-09-15T22:56:26.726Z,23.33
2022-09-15T22:58:56.845Z,23.28
2022-09-15T23:01:27.169Z,23.26
2022-09-15T23:03:57.329Z,23.19
2022-09-15T23:06:28.361Z,23.15
2022-09-15T23:08:59.143Z,22.96
2022-09-15T23:11:29.359Z,22.76
2022-09-15T23:13:57.210Z,22.56
2022-09-15T23:16:25.817Z,22.49
2022-09-15T23:18:54.112Z,22.36
2022-09-15T23:21:21.957Z,22.45
2022-09-15T23:23:50.455Z,22.45
2022-09-15T23:26:21.884Z,22.42
2022-09-15T23:28:49.868Z,22.60
2022-09-15T23:31:18.567Z,22.56
2022-09-15T23:33:47.249Z,22.68
2022-09-15T23:36:19.652Z,22.66
2022-09-15T23:38:48.696Z,22.60
2022-09-15T23:41:17.416Z,22.62
2022-09-15T23:43:45.557Z,22.67
2022-09-15T23:46:13.617Z,22.66
2022-09-15T23:48:42.031Z,22.58
2022-09-15T23:51:10.215Z,22.59
2022-09-15T23:53:38.161Z,22.52
2022-09-15T23:56:06.482Z,22.44
2022-09-15T23:58:34.425Z,22.20
